Time;durP1;ratioP1;P1;durP2;ratioP2;P2;SDS_P1;SDS_P2;PMS_P1;PMS_P2;Temp;Humidity;BMP_temperature;BMP_pressure;BME280_temperature;BME280_humidity;BME280_pressure;Samples;Min_cycle;Max_cycle;Signal;HPM_P1;HPM_P2
2024/02/12 00:02:40;;;;;;;2.00;1.98;;;;;;;6.81;100.00;99699.19;10336828;28;20026;-72
2024/02/12 00:07:42;;;;;;;2.00;2.00;;;;;;;6.74;100.00;99706.41;10335925;28;20553;-72
2024/02/12 00:12:43;;;;;;;0.50;0.50;;;;;;;6.64;100.00;99720.25;10336515;28;20040;-70
2024/02/12 00:17:44;;;;;;;0.95;0.95;;;;;;;6.77;100.00;99722.16;10335755;28;20051;-72
2024/02/12 00:22:44;;;;;;;1.08;1.08;;;;;;;6.90;100.00;99724.06;10338535;28;20056;-70
2024/02/12 00:27:44;;;;;;;0.88;0.88;;;;;;;6.94;100.00;99726.13;10335815;28;20046;-71
2024/02/12 00:32:45;;;;;;;0.68;0.68;;;;;;;6.89;100.00;99722.38;10335035;28;20034;-72
2024/02/12 00:37:45;;;;;;;0.63;0.63;;;;;;;6.92;100.00;99720.16;10335550;28;20046;-72
2024/02/12 00:42:46;;;;;;;1.83;1.83;;;;;;;6.98;100.00;99732.75;10335721;28;20500;-73
2024/02/12 00:47:46;;;;;;;0.60;0.60;;;;;;;7.07;100.00;99738.81;10336461;28;20042;-73
2024/02/12 00:52:47;;;;;;;0.93;0.93;;;;;;;7.18;100.00;99743.59;10338526;28;20034;-71
2024/02/12 00:57:47;;;;;;;2.50;2.40;;;;;;;7.20;100.00;99752.28;10332578;28;20034;-72
2024/02/12 01:02:48;;;;;;;0.60;0.60;;;;;;;7.06;100.00;99753.31;10331647;28;20034;-71
2024/02/12 01:07:49;;;;;;;0.40;0.40;;;;;;;6.97;100.00;99757.19;10333128;28;20027;-72
2024/02/12 01:12:50;;;;;;;0.73;0.73;;;;;;;6.99;100.00;99749.78;10333019;28;20045;-72
2024/02/12 01:17:51;;;;;;;1.30;1.30;;;;;;;7.00;100.00;99754.09;10333373;28;20034;-71
2024/02/12 01:22:51;;;;;;;1.10;1.10;;;;;;;7.07;100.00;99756.81;10333286;28;20054;-69
2024/02/12 01:27:53;;;;;;;0.95;0.95;;;;;;;7.16;100.00;99767.19;10335585;28;20493;-72
2024/02/12 01:32:54;;;;;;;0.93;0.93;;;;;;;7.25;100.00;99775.09;10341312;28;20435;-71
2024/02/12 01:37:55;;;;;;;11.45;2.58;;;;;;;7.20;100.00;99773.81;10325058;28;20524;-70
2024/02/12 01:42:55;;;;;;;0.77;0.77;;;;;;;7.10;100.00;99773.41;10341596;28;20030;-73
2024/02/12 01:47:58;;;;;;;0.77;0.77;;;;;;;7.07;100.00;99762.19;10342003;28;20054;-72
2024/02/12 01:52:59;;;;;;;4.15;1.55;;;;;;;6.88;100.00;99769.19;10340062;28;20042;-72
2024/02/12 01:57:59;;;;;;;1.88;1.88;;;;;;;6.60;100.00;99770.06;10342408;28;20030;-71
2024/02/12 02:03:00;;;;;;;0.77;0.77;;;;;;;6.53;100.00;99772.75;10339845;28;20041;-70
2024/02/12 02:08:00;;;;;;;0.50;0.50;;;;;;;6.68;100.00;99790.63;10340616;28;20026;-70
2024/02/12 02:13:00;;;;;;;0.50;0.50;;;;;;;6.92;100.00;99795.50;10342605;28;20034;-72
2024/02/12 02:18:03;;;;;;;0.65;0.65;;;;;;;7.07;100.00;99789.13;10341837;28;20062;-74
2024/02/12 02:23:04;;;;;;;2.45;2.35;;;;;;;7.19;100.00;99795.59;10339720;28;20097;-70
2024/02/12 02:28:06;;;;;;;1.92;1.92;;;;;;;7.22;100.00;99809.47;10338807;28;20050;-72
2024/02/12 02:33:06;;;;;;;2.00;1.95;;;;;;;7.23;100.00;99816.50;10338545;28;20038;-70
2024/02/12 02:38:06;;;;;;;1.02;0.98;;;;;;;7.20;100.00;99822.28;10336791;28;20038;-71
2024/02/12 02:43:07;;;;;;;0.50;0.50;;;;;;;7.14;100.00;99819.56;10339851;28;20149;-72
2024/02/12 02:48:07;;;;;;;0.70;0.70;;;;;;;7.07;100.00;99810.66;10343862;28;20038;-71
2024/02/12 02:53:08;;;;;;;1.10;1.10;;;;;;;6.96;100.00;99820.16;10337614;28;20064;-73
2024/02/12 02:58:09;;;;;;;0.57;0.57;;;;;;;6.93;100.00;99825.94;10368483;28;20043;-72
2024/02/12 03:03:09;;;;;;;1.63;1.55;;;;;;;6.92;100.00;99822.41;10336627;28;20126;-72
2024/02/12 03:08:11;;;;;;;3.40;2.42;;;;;;;6.97;100.00;99829.88;10340000;28;20043;-71
2024/02/12 03:13:12;;;;;;;2.03;1.95;;;;;;;7.01;100.00;99827.59;10343744;28;20040;-70
2024/02/12 03:18:14;;;;;;;2.33;2.28;;;;;;;6.96;100.00;99828.22;10344365;28;20030;-71
2024/02/12 03:23:14;;;;;;;0.60;0.60;;;;;;;6.91;100.00;99834.19;10334708;28;20384;-70
2024/02/12 03:28:15;;;;;;;2.60;2.50;;;;;;;6.75;100.00;99835.34;10334821;28;20046;-70
2024/02/12 03:33:16;;;;;;;5.03;4.50;;;;;;;6.68;100.00;99841.72;10339364;28;20451;-70
2024/02/12 03:38:16;;;;;;;1.67;1.67;;;;;;;6.77;100.00;99843.25;10338499;28;20092;-72
2024/02/12 03:43:17;;;;;;;1.92;1.85;;;;;;;6.89;100.00;99841.66;10337433;28;20116;-70
2024/02/12 04:04:14;;;;;;;2.78;2.65;;;;;;;7.07;100.00;99856.41;10336965;28;20471;-71
2024/02/12 04:09:16;;;;;;;1.02;1.02;;;;;;;7.09;100.00;99865.13;10336386;28;20086;-71
2024/02/12 04:14:17;;;;;;;0.82;0.82;;;;;;;7.09;100.00;99874.03;10336577;28;20422;-72
2024/02/12 04:19:19;;;;;;;1.02;1.02;;;;;;;7.03;100.00;99857.84;10338105;28;20077;-71
2024/02/12 04:24:19;;;;;;;1.23;1.23;;;;;;;7.03;100.00;99876.69;10338182;28;20039;-71
2024/02/12 04:29:20;;;;;;;2.58;2.45;;;;;;;6.96;100.00;99890.94;10337659;28;20041;-71
2024/02/12 04:34:20;;;;;;;10.25;3.17;;;;;;;6.80;100.00;99883.22;10337332;28;20390;-73
2024/02/12 04:39:21;;;;;;;1.45;1.45;;;;;;;6.68;100.00;99893.69;10336841;28;20467;-71
2024/02/12 04:44:21;;;;;;;2.95;2.75;;;;;;;6.65;100.00;99910.22;10337757;28;20070;-72
2024/02/12 04:49:22;;;;;;;0.60;0.60;;;;;;;6.60;100.00;99912.66;10340699;28;20089;-71
2024/02/12 04:54:25;;;;;;;0.80;0.80;;;;;;;6.67;100.00;99916.22;10334975;28;20125;-73
2024/02/12 04:59:25;;;;;;;0.82;0.82;;;;;;;6.72;100.00;99913.78;10335630;28;20042;-71
2024/02/12 05:04:29;;;;;;;1.67;1.63;;;;;;;6.72;100.00;99919.16;10342784;28;20042;-73
2024/02/12 05:09:29;;;;;;;3.47;3.25;;;;;;;6.75;100.00;99928.69;10346742;28;20096;-73
2024/02/12 05:14:29;;;;;;;3.17;2.97;;;;;;;6.78;100.00;99936.38;10348646;28;20085;-72
2024/02/12 05:24:49;;;;;;;0.40;0.40;;;;;;;6.88;100.00;99939.53;10343838;28;20484;-72
2024/02/12 05:29:49;;;;;;;7.47;1.88;;;;;;;6.84;100.00;99938.28;10348510;28;20042;-72
2024/02/12 05:34:50;;;;;;;4.43;4.20;;;;;;;6.74;100.00;99948.56;10351958;28;20085;-71
2024/02/12 05:39:51;;;;;;;0.60;0.60;;;;;;;6.67;100.00;99953.06;10349053;28;20035;-73
2024/02/12 05:44:51;;;;;;;5.15;4.72;;;;;;;6.65;100.00;99949.72;10344267;28;20072;-74
2024/02/12 05:49:51;;;;;;;0.50;0.50;;;;;;;6.56;100.00;99932.06;10344483;28;20455;-72
2024/02/12 05:54:52;;;;;;;0.47;0.47;;;;;;;6.52;100.00;99942.41;10342150;28;20092;-72
2024/02/12 05:59:52;;;;;;;0.90;0.90;;;;;;;6.39;100.00;99959.25;10340517;28;20069;-72
2024/02/12 06:04:53;;;;;;;0.70;0.70;;;;;;;6.29;100.00;99964.13;10341289;28;20088;-72
2024/02/12 06:09:53;;;;;;;0.80;0.80;;;;;;;6.11;100.00;99958.34;10341206;28;20042;-73
2024/02/12 06:14:54;;;;;;;0.60;0.60;;;;;;;6.15;100.00;99971.22;10340086;28;20038;-72
2024/02/12 06:19:56;;;;;;;1.23;1.23;;;;;;;6.08;100.00;99970.31;10337382;28;20050;-71
2024/02/12 06:24:56;;;;;;;0.40;0.40;;;;;;;6.07;100.00;99981.28;10352353;28;20435;-71
2024/02/12 06:29:57;;;;;;;1.88;1.83;;;;;;;5.99;100.00;99990.28;10337205;28;20121;-71
2024/02/12 06:34:58;;;;;;;0.82;0.82;;;;;;;5.94;100.00;99995.41;10336331;28;20034;-72
2024/02/12 06:39:58;;;;;;;1.40;1.40;;;;;;;5.88;100.00;99993.44;10337295;28;20069;-72
2024/02/12 06:44:59;;;;;;;0.82;0.82;;;;;;;5.82;100.00;100000.38;10336166;28;20380;-74
2024/02/12 06:50:00;;;;;;;0.70;0.70;;;;;;;5.83;100.00;100016.31;10338018;28;20034;-73
2024/02/12 06:55:00;;;;;;;0.60;0.60;;;;;;;5.78;100.00;100016.06;10336712;28;20065;-72
2024/02/12 07:00:03;;;;;;;1.60;1.55;;;;;;;5.77;100.00;100025.13;10336268;28;20434;-74
2024/02/12 07:05:03;;;;;;;0.52;0.52;;;;;;;5.66;100.00;100032.84;10335013;28;20543;-73
2024/02/12 07:10:04;;;;;;;0.60;0.60;;;;;;;5.58;100.00;100031.06;10337080;28;20150;-73
2024/02/12 07:15:08;;;;;;;0.93;0.93;;;;;;;5.58;100.00;100044.50;10337309;28;20038;-72
2024/02/12 07:20:09;;;;;;;0.73;0.73;;;;;;;5.57;100.00;100056.28;10336137;28;20058;-73
2024/02/12 07:25:09;;;;;;;1.13;1.13;;;;;;;5.61;100.00;100068.28;10334007;28;20037;-72
2024/02/12 07:30:10;;;;;;;0.60;0.60;;;;;;;5.86;100.00;100068.00;10317711;28;20041;-72
2024/02/12 07:35:11;;;;;;;0.50;0.50;;;;;;;6.19;100.00;100071.97;10335121;28;20371;-70
2024/02/12 07:40:11;;;;;;;0.60;0.60;;;;;;;6.47;100.00;100090.06;10334004;28;20038;-72
2024/02/12 07:45:13;;;;;;;0.40;0.40;;;;;;;6.86;100.00;100086.09;10317053;28;20064;-73
2024/02/12 07:50:14;;;;;;;1.10;1.10;;;;;;;7.22;100.00;100096.75;10333259;28;20046;-72
2024/02/12 07:55:14;;;;;;;1.23;1.23;;;;;;;7.54;100.00;100105.28;10334316;28;20038;-74
2024/02/12 08:00:15;;;;;;;0.60;0.60;;;;;;;8.13;100.00;100107.44;10333394;28;20049;-71
2024/02/12 08:05:16;;;;;;;0.90;0.90;;;;;;;8.59;100.00;100107.66;10334287;28;20072;-71
2024/02/12 08:10:16;;;;;;;0.60;0.60;;;;;;;9.07;100.00;100125.59;10333807;28;20030;-72
2024/02/12 08:15:17;;;;;;;0.60;0.60;;;;;;;9.42;100.00;100133.50;10333080;28;20030;-73
2024/02/12 08:20:17;;;;;;;0.50;0.50;;;;;;;9.77;100.00;100137.59;10332868;28;20061;-73
2024/02/12 08:25:18;;;;;;;0.57;0.57;;;;;;;10.17;100.00;100144.75;10332866;28;20116;-71
2024/02/12 08:30:18;;;;;;;0.40;0.40;;;;;;;9.19;100.00;100148.25;10333916;28;20069;-73
2024/02/12 08:35:20;;;;;;;0.82;0.82;;;;;;;8.70;100.00;100153.97;10332525;28;20097;-74
2024/02/12 08:40:22;;;;;;;1.73;1.73;;;;;;;9.78;100.00;100160.88;10332407;28;20493;-73
2024/02/12 08:45:23;;;;;;;0.88;0.88;;;;;;;10.61;100.00;100165.66;10332314;28;20037;-72
2024/02/12 08:50:24;;;;;;;2.03;2.03;;;;;;;10.90;100.00;100168.81;10348207;28;20041;-71
2024/02/12 08:55:26;;;;;;;0.43;0.43;;;;;;;10.85;100.00;100174.09;10347699;28;20047;-71
2024/02/12 09:00:27;;;;;;;0.50;0.50;;;;;;;11.16;100.00;100198.44;10332157;28;20125;-71
2024/02/12 09:05:28;;;;;;;3.42;3.08;;;;;;;11.13;100.00;100200.78;10332779;28;20030;-70
2024/02/12 09:10:28;;;;;;;1.00;1.00;;;;;;;10.00;100.00;100206.63;10348517;28;20042;-72
2024/02/12 09:15:29;;;;;;;0.80;0.80;;;;;;;9.55;100.00;100209.97;10330435;28;20039;-73
2024/02/12 09:20:29;;;;;;;0.50;0.50;;;;;;;9.50;100.00;100215.16;10333006;28;20062;-71
2024/02/12 09:25:30;;;;;;;0.70;0.70;;;;;;;9.66;100.00;100227.44;10330826;28;20363;-71
2024/02/12 09:30:31;;;;;;;0.50;0.50;;;;;;;9.55;100.00;100236.19;10330364;28;20042;-71
2024/02/12 09:35:35;;;;;;;0.57;0.57;;;;;;;9.53;100.00;100247.19;10330404;28;20074;-71
2024/02/12 09:40:35;;;;;;;0.47;0.47;;;;;;;9.67;100.00;100249.91;10332752;28;20042;-73
2024/02/12 09:45:40;;;;;;;0.60;0.60;;;;;;;9.92;100.00;100253.66;10333514;28;20053;-73
2024/02/12 09:50:44;;;;;;;12.63;7.30;;;;;;;10.29;100.00;100251.34;10322602;28;20030;-72
2024/02/12 09:55:46;;;;;;;0.60;0.60;;;;;;;10.25;100.00;100266.31;10338968;28;20034;-70
2024/02/12 10:00:46;;;;;;;0.43;0.43;;;;;;;10.14;100.00;100273.16;10339843;28;20030;-72
2024/02/12 10:05:47;;;;;;;0.50;0.50;;;;;;;10.23;100.00;100284.63;10340128;28;20458;-72
2024/02/12 10:10:47;;;;;;;2.38;2.25;;;;;;;10.05;100.00;100292.53;10357778;28;20113;-71
2024/02/12 10:15:55;;;;;;;0.50;0.50;;;;;;;10.06;100.00;100296.94;10342995;28;20033;-71
2024/02/12 10:20:55;;;;;;;0.95;0.90;;;;;;;9.96;100.00;100309.00;10340030;28;20050;-74
2024/02/12 10:25:56;;;;;;;0.50;0.50;;;;;;;9.96;100.00;100314.41;10336226;28;20034;-73
2024/02/12 10:30:56;;;;;;;0.40;0.40;;;;;;;10.29;100.00;100313.56;10337840;28;20126;-71
2024/02/12 10:35:57;;;;;;;2.05;1.95;;;;;;;10.50;100.00;100328.75;10337913;28;20359;-71
2024/02/12 10:40:57;;;;;;;0.50;0.50;;;;;;;10.60;100.00;100331.84;10336340;28;20035;-71
2024/02/12 10:45:59;;;;;;;0.40;0.40;;;;;;;10.25;100.00;100334.78;10336528;28;20034;-72
2024/02/12 10:51:01;;;;;;;0.50;0.50;;;;;;;10.17;100.00;100348.50;10336342;28;20114;-72
2024/02/12 10:56:01;;;;;;;0.40;0.40;;;;;;;10.25;100.00;100345.63;10335619;28;20411;-73
2024/02/12 11:01:02;;;;;;;0.38;0.38;;;;;;;10.40;100.00;100356.25;10335989;28;20034;-74
2024/02/12 11:06:04;;;;;;;0.52;0.52;;;;;;;10.98;100.00;100352.81;10335842;28;20363;-71
2024/02/12 11:11:21;;;;;;;0.63;0.63;;;;;;;10.78;100.00;100349.31;10318725;28;20070;-71
2024/02/12 11:16:21;;;;;;;1.98;1.88;;;;;;;10.50;100.00;100354.97;10336192;28;20061;-71
2024/02/12 11:21:26;;;;;;;4.13;3.10;;;;;;;10.32;100.00;100351.03;10335379;28;20410;-71
2024/02/12 11:26:26;;;;;;;0.50;0.50;;;;;;;11.97;100.00;100358.78;10335218;28;20042;-71
2024/02/12 11:31:26;;;;;;;0.50;0.50;;;;;;;12.13;100.00;100369.09;10333275;28;20130;-73
2024/02/12 11:36:27;;;;;;;0.60;0.60;;;;;;;11.44;100.00;100370.75;10317798;28;20030;-73
2024/02/12 11:41:31;;;;;;;0.68;0.68;;;;;;;11.42;100.00;100386.38;10335366;28;20034;-71
2024/02/12 11:46:38;;;;;;;2.30;2.13;;;;;;;11.44;100.00;100388.88;10334388;28;20037;-70
2024/02/12 11:51:38;;;;;;;;;;;;;;;11.12;100.00;100397.75;10334151;28;20038;-73
2024/02/12 11:56:40;;;;;;;0.55;0.55;;;;;;;10.82;100.00;100402.84;10334288;28;19933;-70
2024/02/12 12:01:41;;;;;;;0.50;0.50;;;;;;;10.62;100.00;100399.31;10317112;28;20474;-72
2024/02/12 12:06:42;;;;;;;0.50;0.50;;;;;;;11.06;100.00;100405.91;10341894;28;20037;-72
2024/02/12 12:11:48;;;;;;;5.78;4.00;;;;;;;12.20;100.00;100407.88;10338381;28;20086;-73
2024/02/12 12:16:48;;;;;;;0.90;0.90;;;;;;;13.90;100.00;100414.63;10331978;28;20185;-73
2024/02/12 12:21:50;;;;;;;0.47;0.47;;;;;;;14.21;100.00;100410.00;10332885;28;20062;-72
2024/02/12 12:26:51;;;;;;;0.50;0.50;;;;;;;14.86;100.00;100421.69;10349074;28;20038;-71
2024/02/12 12:31:51;;;;;;;1.40;1.40;;;;;;;15.53;100.00;100423.13;10331975;28;20121;-73
2024/02/12 12:36:51;;;;;;;2.97;2.70;;;;;;;15.83;100.00;100427.56;10331985;28;20034;-72
2024/02/12 12:41:52;;;;;;;6.47;2.47;;;;;;;13.61;100.00;100429.88;10331663;28;20376;-70
2024/02/12 12:46:53;;;;;;;11.73;2.78;;;;;;;12.17;100.00;100446.31;10347296;28;20136;-74
2024/02/12 12:51:53;;;;;;;7.57;2.60;;;;;;;11.04;100.00;100454.91;10332293;28;20044;-72
2024/02/12 12:56:53;;;;;;;4.32;2.60;;;;;;;10.32;100.00;100456.59;10348696;28;20101;-70
2024/02/12 13:01:54;;;;;;;17.77;2.58;;;;;;;9.91;100.00;100462.94;10364962;28;20130;-71
2024/02/12 13:06:54;;;;;;;10.95;2.92;;;;;;;10.09;100.00;100478.59;10314586;28;20386;-73
2024/02/12 13:11:55;;;;;;;4.60;2.15;;;;;;;10.14;100.00;100469.84;10332041;28;20046;-72
2024/02/12 13:16:55;;;;;;;13.60;2.90;;;;;;;10.04;100.00;100478.38;10332222;28;20053;-71
2024/02/12 13:21:56;;;;;;;6.05;1.95;;;;;;;10.02;100.00;100484.00;10332084;28;20061;-70
2024/02/12 13:26:58;;;;;;;13.70;2.78;;;;;;;10.38;100.00;100476.59;10338616;28;20073;-73
2024/02/12 13:32:01;;;;;;;4.00;2.65;;;;;;;10.67;100.00;100483.47;10354161;28;20042;-71
2024/02/12 13:37:06;;;;;;;9.70;3.47;;;;;;;10.75;100.00;100483.25;10339653;28;20589;-72
2024/02/12 13:42:08;;;;;;;4.30;3.00;;;;;;;10.67;100.00;100488.91;10321793;28;20466;-71
2024/02/12 13:47:11;;;;;;;5.35;2.53;;;;;;;10.76;100.00;100498.47;10337244;28;20483;-70
2024/02/12 13:52:12;;;;;;;11.55;2.58;;;;;;;10.66;100.00;100504.31;10338529;28;20039;-72
2024/02/12 13:57:15;;;;;;;11.75;2.88;;;;;;;10.55;100.00;100509.50;10336588;28;20031;-71
2024/02/12 14:02:15;;;;;;;13.73;3.65;;;;;;;10.45;100.00;100526.97;10336815;28;20122;-71
2024/02/12 14:07:18;;;;;;;11.07;2.33;;;;;;;10.85;100.00;100513.50;10338061;28;20035;-71
2024/02/12 14:12:19;;;;;;;9.77;2.67;;;;;;;11.03;100.00;100530.97;10338416;28;20088;-72
2024/02/12 14:17:19;;;;;;;2.22;1.98;;;;;;;10.61;100.00;100546.59;10338489;28;20038;-71
2024/02/12 14:22:20;;;;;;;15.30;2.95;;;;;;;10.62;100.00;100557.19;10337956;28;20362;-70
2024/02/12 14:27:22;;;;;;;4.95;1.92;;;;;;;10.31;100.00;100568.63;10338429;28;20030;-73
2024/02/12 14:32:24;;;;;;;9.25;2.47;;;;;;;9.80;100.00;100577.13;10335255;28;20093;-73
2024/02/12 14:37:25;;;;;;;1.90;1.73;;;;;;;9.46;100.00;100597.69;10337894;28;20034;-70
2024/02/12 14:42:26;;;;;;;6.20;2.40;;;;;;;9.27;100.00;100599.22;10337530;28;20058;-71
2024/02/12 14:47:26;;;;;;;4.10;2.53;;;;;;;9.61;100.00;100602.19;10336312;28;20186;-71
2024/02/12 14:52:27;;;;;;;2.33;1.85;;;;;;;9.89;100.00;100599.41;10337235;28;20161;-69
2024/02/12 14:57:28;;;;;;;4.72;2.10;;;;;;;9.93;100.00;100603.41;10334746;28;20493;-71
2024/02/12 15:02:29;;;;;;;16.52;2.67;;;;;;;9.69;100.00;100624.47;10336320;28;20027;-72
2024/02/12 15:07:29;;;;;;;7.55;2.22;;;;;;;9.69;100.00;100626.34;10335488;28;20031;-70
2024/02/12 15:12:30;;;;;;;3.50;1.75;;;;;;;9.44;100.00;100640.28;10337420;28;20509;-70
2024/02/12 15:17:30;;;;;;;2.15;1.67;;;;;;;9.38;100.00;100648.34;10336275;28;20098;-70
2024/02/12 15:22:31;;;;;;;7.43;2.33;;;;;;;9.26;100.00;100651.59;10335317;28;20085;-71
2024/02/12 15:27:32;;;;;;;2.70;2.50;;;;;;;9.15;100.00;100662.94;10318297;28;20396;-71
2024/02/12 15:32:33;;;;;;;11.27;3.45;;;;;;;9.05;100.00;100673.22;10333559;28;20043;-70
2024/02/12 15:37:35;;;;;;;5.93;1.98;;;;;;;8.66;100.00;100673.66;10335067;28;20038;-70
2024/02/12 15:42:35;;;;;;;8.30;3.20;;;;;;;8.43;100.00;100684.59;10332751;28;20038;-71
2024/02/12 15:47:38;;;;;;;3.28;2.25;;;;;;;8.09;100.00;100694.06;10332024;28;20038;-72
2024/02/12 15:52:41;;;;;;;9.38;4.13;;;;;;;8.03;100.00;100709.13;10334726;28;20058;-71
2024/02/12 15:57:44;;;;;;;3.83;2.60;;;;;;;7.92;100.00;100709.59;10334815;28;20031;-72
2024/02/12 16:02:45;;;;;;;2.33;2.10;;;;;;;7.75;100.00;100724.25;10334765;28;20040;-71
2024/02/12 16:07:45;;;;;;;7.57;2.75;;;;;;;7.68;100.00;100732.25;10333334;28;20037;-70
2024/02/12 16:12:46;;;;;;;12.23;3.15;;;;;;;7.55;100.00;100743.63;10334686;28;20038;-70
2024/02/12 16:17:47;;;;;;;2.90;2.50;;;;;;;7.52;100.00;100757.47;10338112;28;20030;-70
2024/02/12 16:22:52;;;;;;;9.50;2.42;;;;;;;7.36;100.00;100760.31;10339940;28;20058;-72
2024/02/12 16:27:53;;;;;;;7.50;2.33;;;;;;;7.31;100.00;100765.41;10333130;28;20026;-71
2024/02/12 16:32:54;;;;;;;5.22;2.60;;;;;;;7.14;100.00;100776.25;10335730;28;20097;-70
2024/02/12 16:37:54;;;;;;;3.53;1.65;;;;;;;6.87;100.00;100779.47;10336625;28;20457;-71
2024/02/12 16:42:55;;;;;;;6.85;2.85;;;;;;;6.68;100.00;100789.66;10335597;28;20053;-69
2024/02/12 16:47:57;;;;;;;9.65;2.60;;;;;;;6.53;100.00;100802.16;10333447;28;20066;-70
2024/02/12 16:52:57;;;;;;;5.25;2.33;;;;;;;6.42;100.00;100807.91;10332865;28;20046;-72
2024/02/12 16:57:58;;;;;;;18.48;3.50;;;;;;;6.33;100.00;100823.22;10336810;28;20462;-70
2024/02/12 17:02:59;;;;;;;10.07;2.20;;;;;;;6.23;100.00;100830.66;10341240;28;20042;-71
2024/02/12 17:07:59;;;;;;;2.72;2.53;;;;;;;6.19;100.00;100850.78;10340941;28;20038;-70
2024/02/12 17:13:00;;;;;;;10.40;3.75;;;;;;;6.11;100.00;100854.34;10340896;28;20370;-73
2024/02/12 17:18:04;;;;;;;3.80;2.88;;;;;;;6.03;100.00;100862.41;10339580;28;20034;-72
2024/02/12 17:23:04;;;;;;;8.25;3.25;;;;;;;5.92;100.00;100866.25;10354486;28;20146;-71
2024/02/12 17:28:06;;;;;;;9.75;3.28;;;;;;;5.80;100.00;100881.84;10340867;28;20058;-70
2024/02/12 17:33:08;;;;;;;6.93;4.07;;;;;;;5.82;100.00;100892.44;10339444;28;20030;-73
2024/02/12 17:38:08;;;;;;;9.50;3.72;;;;;;;5.78;100.00;100891.94;10339321;28;20062;-69
2024/02/12 17:43:11;;;;;;;4.25;3.85;;;;;;;5.71;100.00;100908.88;10340102;28;20454;-69
2024/02/12 17:48:11;;;;;;;7.30;3.70;;;;;;;5.67;100.00;100919.13;10339381;28;20080;-72
2024/02/12 17:53:13;;;;;;;16.42;3.88;;;;;;;5.65;100.00;100931.03;10340402;28;20100;-71
2024/02/12 17:58:13;;;;;;;8.32;3.67;;;;;;;5.61;100.00;100933.22;10339577;28;20073;-71
2024/02/12 18:03:14;;;;;;;9.20;3.13;;;;;;;5.52;100.00;100936.88;10337114;28;20062;-69
2024/02/12 18:08:14;;;;;;;8.90;3.75;;;;;;;5.42;100.00;100946.94;10338567;28;20049;-70
2024/02/12 18:13:15;;;;;;;17.25;4.57;;;;;;;5.43;100.00;100960.22;10336726;28;20027;-71
2024/02/12 18:18:18;;;;;;;4.78;3.45;;;;;;;5.39;100.00;100966.88;10339022;28;20394;-71
2024/02/12 18:23:19;;;;;;;4.68;3.40;;;;;;;5.36;100.00;100968.06;10337995;28;20050;-70
2024/02/12 18:28:19;;;;;;;10.38;4.55;;;;;;;5.32;100.00;100977.44;10338511;28;20046;-71
2024/02/12 18:33:20;;;;;;;5.13;3.05;;;;;;;5.29;100.00;100983.13;10338136;28;20042;-72
2024/02/12 18:38:20;;;;;;;10.20;4.57;;;;;;;5.30;100.00;100994.72;10338026;28;20171;-70
2024/02/12 18:43:22;;;;;;;6.43;4.70;;;;;;;5.28;100.00;100992.19;10337633;28;20039;-69
2024/02/12 18:48:22;;;;;;;7.28;4.38;;;;;;;5.26;100.00;101007.59;10352381;28;20046;-71
2024/02/12 18:53:23;;;;;;;5.45;4.10;;;;;;;5.21;100.00;101006.44;10337077;28;20348;-71
2024/02/12 18:58:23;;;;;;;6.10;4.07;;;;;;;5.18;100.00;101010.28;10336317;28;20038;-71
2024/02/12 19:03:23;;;;;;;10.35;4.55;;;;;;;5.12;100.00;101006.38;10335447;28;20038;-71
2024/02/12 19:08:24;;;;;;;23.55;5.13;;;;;;;5.13;100.00;101031.38;10335203;28;20042;-70
2024/02/12 19:13:26;;;;;;;11.60;5.78;;;;;;;5.10;100.00;101031.69;10335277;28;20100;-71
2024/02/12 19:18:27;;;;;;;9.57;4.53;;;;;;;5.09;100.00;101038.06;10336230;28;20062;-72
2024/02/12 19:23:27;;;;;;;7.20;5.22;;;;;;;5.08;100.00;101036.38;10334518;28;20472;-72
2024/02/12 19:28:28;;;;;;;16.48;8.90;;;;;;;5.06;100.00;101041.91;10334041;28;20042;-71
2024/02/12 19:33:28;;;;;;;10.18;5.40;;;;;;;5.06;100.00;101041.06;10351527;28;20074;-70
2024/02/12 19:38:29;;;;;;;12.77;4.40;;;;;;;5.00;100.00;101041.69;10369076;28;20038;-71
2024/02/12 19:43:30;;;;;;;14.20;5.97;;;;;;;4.98;100.00;101049.03;10334608;28;20042;-71
2024/02/12 19:48:30;;;;;;;12.85;5.63;;;;;;;4.99;100.00;101050.75;10334427;28;20110;-71
2024/02/12 19:53:31;;;;;;;5.97;5.35;;;;;;;4.93;100.00;101064.78;10334393;28;20035;-72
2024/02/12 19:58:33;;;;;;;7.55;4.93;;;;;;;4.89;100.00;101059.75;10332781;28;20125;-71
2024/02/12 20:03:34;;;;;;;4.72;4.30;;;;;;;4.85;100.00;101061.06;10316408;28;20031;-71
2024/02/12 20:08:35;;;;;;;14.60;4.07;;;;;;;4.85;100.00;101071.78;10316179;28;20034;-70
2024/02/12 20:13:35;;;;;;;12.57;5.45;;;;;;;4.88;100.00;101086.72;10331597;28;20030;-70
2024/02/12 20:18:36;;;;;;;9.77;4.53;;;;;;;4.92;100.00;101088.09;10331614;28;20042;-74
2024/02/12 20:23:36;;;;;;;10.10;3.75;;;;;;;4.96;100.00;101097.53;10364540;28;20142;-72
2024/02/12 20:28:37;;;;;;;10.93;4.53;;;;;;;5.00;100.00;101095.38;10315376;28;20053;-72
2024/02/12 20:33:37;;;;;;;5.43;3.78;;;;;;;5.01;100.00;101103.28;10314516;28;20042;-70
2024/02/12 20:38:37;;;;;;;9.30;4.75;;;;;;;5.04;100.00;101111.03;10332404;28;20050;-71
2024/02/12 20:43:39;;;;;;;7.10;3.60;;;;;;;5.02;100.00;101115.69;10332343;28;20069;-70
2024/02/12 20:48:39;;;;;;;9.02;5.50;;;;;;;4.98;100.00;101113.47;10333234;28;20045;-70
2024/02/12 20:53:40;;;;;;;14.70;5.97;;;;;;;4.96;100.00;101127.03;10332627;28;20038;-70
2024/02/12 20:58:40;;;;;;;5.60;4.75;;;;;;;4.91;100.00;101126.66;10333116;28;20046;-72
2024/02/12 21:03:40;;;;;;;9.70;4.20;;;;;;;4.90;100.00;101133.03;10331473;28;20038;-71
2024/02/12 21:08:41;;;;;;;3.80;3.20;;;;;;;4.86;100.00;101126.28;10332614;28;20042;-70
2024/02/12 21:13:41;;;;;;;13.95;4.75;;;;;;;4.88;100.00;101133.19;10332025;28;20042;-77
2024/02/12 21:18:42;;;;;;;8.85;4.18;;;;;;;4.87;100.00;101126.13;10313701;28;20034;-73
2024/02/12 21:23:43;;;;;;;16.83;5.72;;;;;;;4.86;100.00;101132.50;10330470;28;20054;-70
2024/02/12 21:28:44;;;;;;;9.20;4.88;;;;;;;4.87;100.00;101144.06;10330991;28;20104;-72
2024/02/12 21:33:44;;;;;;;7.85;4.43;;;;;;;4.88;100.00;101146.63;10314023;28;20110;-71
2024/02/12 21:38:48;;;;;;;7.05;4.97;;;;;;;4.89;100.00;101158.19;10331619;28;20061;-72
2024/02/12 21:43:48;;;;;;;11.85;5.32;;;;;;;4.89;100.00;101163.56;10334181;28;20034;-72
2024/02/12 21:48:49;;;;;;;11.60;3.50;;;;;;;4.88;100.00;101173.44;10341795;28;20448;-73
2024/02/12 21:53:49;;;;;;;11.50;4.25;;;;;;;4.94;100.00;101173.81;10356580;28;20026;-70
2024/02/12 21:58:51;;;;;;;12.23;4.30;;;;;;;4.97;100.00;101177.03;10343071;28;20375;-71
2024/02/12 22:03:51;;;;;;;13.90;4.57;;;;;;;4.93;100.00;101172.97;10360580;28;20057;-71
2024/02/12 22:08:51;;;;;;;10.88;3.97;;;;;;;4.88;100.00;101186.00;10342028;28;20446;-71
2024/02/12 22:13:52;;;;;;;8.02;3.63;;;;;;;4.85;100.00;101179.13;10341494;28;20038;-73
2024/02/12 22:18:54;;;;;;;6.20;4.10;;;;;;;4.90;100.00;101187.53;10340291;28;20037;-71
2024/02/12 22:23:54;;;;;;;3.92;3.03;;;;;;;4.85;100.00;101189.84;10339203;28;20054;-71
2024/02/12 22:28:55;;;;;;;3.63;3.15;;;;;;;4.82;100.00;101200.91;10338267;28;20046;-73
2024/02/12 22:33:56;;;;;;;4.00;3.60;;;;;;;4.77;100.00;101208.53;10340164;28;20038;-71
2024/02/12 22:38:57;;;;;;;10.50;3.97;;;;;;;4.68;100.00;101212.13;10322605;28;20539;-72
2024/02/12 22:43:58;;;;;;;11.52;3.53;;;;;;;4.73;100.00;101203.66;10337330;28;20341;-70
2024/02/12 22:48:59;;;;;;;4.13;2.78;;;;;;;4.74;100.00;101224.94;10339944;28;20046;-69
2024/02/12 22:53:59;;;;;;;11.13;4.50;;;;;;;4.68;100.00;101230.91;10354014;28;20050;-69
2024/02/12 22:59:01;;;;;;;7.57;3.28;;;;;;;4.78;100.00;101231.69;10338762;28;20038;-71
2024/02/12 23:04:02;;;;;;;6.55;3.10;;;;;;;4.64;100.00;101245.63;10339223;28;20066;-70
2024/02/12 23:09:04;;;;;;;8.45;3.75;;;;;;;4.69;100.00;101242.47;10338467;28;20435;-70
2024/02/12 23:14:04;;;;;;;6.63;4.03;;;;;;;4.70;100.00;101255.75;10337589;28;20034;-71
2024/02/12 23:19:05;;;;;;;5.45;3.95;;;;;;;4.63;100.00;101260.03;10338474;28;20042;-69
2024/02/12 23:24:07;;;;;;;13.57;4.20;;;;;;;4.69;100.00;101263.94;10353009;28;20047;-71